Terminal Aerodrome Forecast
Issued by NWS Medford, OR

Home | Current Version | Previous Version | Text Only | Print | Product List | Glossary On
Versions: 1 2 3 4 5 6 7 8 9 10 11 12 13 14 15 16 17 18 19 20 21 22 23 24
846
FTUS46 KMFR 271120
TAFMFR
TAF
KMFR 271120Z 2712/2812 VRB03KT P6SM -SHRASN SCT025 OVC040
     FM272200 30008KT P6SM -SHRA SCT025 OVC040
     FM280300 VRB03KT P6SM -SHRASN BKN025 OVC040=

USA.gov is the U.S. government's official web portal to all federal, state and local government web resources and services.